007  
UXUS97 KREV 201342  
SRGREV  
 
SOARING FORECAST  
NATIONAL WEATHER SERVICE - RENO NV  
700 AM PDT MON AUG 20 2018  
 
THIS SOARING FORECAST IS FOR THE EASTERN SIERRA AND WESTERN NEVADA  
WITH SPECIFIC INDICES FOR THE GREATER RENO AREA.  
 
THIS FORECAST IS PREPARED DAILY BY 700 AM AND IS NOT UPDATED.  
 
FOR CURRENT FLIGHT CONDITIONS...FORECASTS...AND ADVISORIES...ACCESS  
YOUR LOCAL BRIEFING OUTLET OR FLIGHT SERVICE STATION.  
 
*******************************************************************  
FORECASTED LOCAL INDICES FOR RENO: TODAY YESTERDAY  
FORECASTED MAX TEMP AT RENO (DEG F)..... 96 101  
FORECASTED TRIGGER TEMPERATURE (DEG F).. 79 83  
EXCEEDED YESTERDAY BY 1155 AM PDT  
FORECASTED MAXIMUM ALTITUDE (FT MSL).... 16500 16200  
FORECASTED SOARING INDEX (FPM).......... 1005 996  
FORECASTED K-INDEX.........VALID 18Z.... -4 15  
FORECASTED K-INDEX.........VALID 00Z.... 10 17  
FORECASTED LIFTED INDEX....VALID 18Z.... 8 6  
FORECASTED LIFTED INDEX....VALID 00Z.... 5 3  
 
AFTERNOON WINDS ALOFT FORECAST  
MSL (FT) WIND/TEMP  
9000 2711/+17  
10000 2611/+14  
12000 2610/+08  
14000 2514/+02  
16000 2519/-03  
18000 2534/-08  
24000 2549/-19  
30000 2563/-35  
34000 2573/-43  
39000 2574/-53  
 
SLIDE MOUNTAIN DATA:  
DATE TIME TEMP DEWPT RH WIND (MPH)  
(F) (F) | DIR SPEED GUST  
2018-08-20 05:20 51 28 28 | 234 15 32  
2018-08-20 05:00 51 29 30 | 232 16 33  
2018-08-20 04:50 52 31 32 | 241 17 33  
2018-08-20 04:30 52 31 33 | 236 17 33  
 
SIERRA CREST 8700 FT DATA:  
DATE TIME TEMP RH WIND  
DIR SPEED GUST  
2018-08-20 0600 54 24 165 0 0  
2018-08-20 0545 54 23 165 0 0  
2018-08-20 0530 54 21 165 0 0  
2018-08-20 0515 54 20 163 0 0  
 
RENO TAF FORECAST:  
KRNO 201120Z 2012/2112 VRB04KT P6SM SKC  
FM202200 29014G26KT P6SM SKC  
FM210500 31010KT P6SM SKC  
FM210700 VRB03KT P6SM SKC  
 
CARSON CITY TAF FORECAST:  
KCXP 201120Z 2012/2112 VRB04KT P6SM SKC  
FM201700 26006KT P6SM SKC  
FM202100 27012G22KT P6SM SKC  
FM210200 32004KT P6SM SKC  
 
OUTLOOK FOR THE RENO-CARSON CITY-MINDEN AREA:   
TUESDAY
 
SUNNY. AREAS OF SMOKE IN THE MORNING SOUTH OF MINDEN.  
HAZE THROUGH THE DAY. HIGHS 88 TO 93. WEST WINDS 10 TO 15 MPH.  
 
SUNRISE AND SUNSET  
AUGUST 20 2018........SUNRISE 616 AM PDT SUNSET 748 PM PDT  
AUGUST 21 2018........SUNRISE 617 AM PDT SUNSET 746 PM PDT  
 
CLICK HERE TO GO TO PREVIOUS BULLETINS.

The Nexlab NV Page
The Nexlab CA Page Main Text Page